Time;durP1;ratioP1;P1;durP2;ratioP2;P2;SDS_P1;SDS_P2;PMS_P1;PMS_P2;Temp;Humidity;BMP_temperature;BMP_pressure;BME280_temperature;BME280_humidity;BME280_pressure;Samples;Min_cycle;Max_cycle;Signal;HPM_P1;HPM_P2
2022/01/30 00:00:33;;;;;;;0.80;0.63;;;5.40;99.90;;;;;;4984422;28;20553;-85
2022/01/30 00:02:59;;;;;;;0.90;0.80;;;5.50;99.90;;;;;;5009669;28;20510;-85
2022/01/30 00:05:25;;;;;;;0.90;0.80;;;5.60;99.90;;;;;;4989425;28;20538;-85
2022/01/30 00:07:51;;;;;;;0.87;0.70;;;5.50;99.90;;;;;;5005981;28;20284;-86
2022/01/30 00:10:17;;;;;;;1.27;1.17;;;5.50;99.90;;;;;;5007596;28;21046;-85
2022/01/30 00:12:53;;;;;;;0.90;0.80;;;5.40;99.90;;;;;;5002020;28;20682;-85
2022/01/30 00:15:23;;;;;;;0.87;0.70;;;5.10;99.90;;;;;;5005423;28;20211;-86
2022/01/30 00:18:05;;;;;;;0.90;0.80;;;4.90;99.90;;;;;;4998804;28;20444;-85
2022/01/30 00:20:33;;;;;;;0.90;0.80;;;4.80;99.90;;;;;;5009570;28;20443;-86
2022/01/30 00:25:56;;;;;;;3.23;1.50;;;4.70;99.90;;;;;;4983769;28;20436;-84
2022/01/30 00:28:24;;;;;;;0.90;0.80;;;4.70;99.90;;;;;;5008784;28;20431;-85
2022/01/30 00:30:50;;;;;;;0.90;0.80;;;4.70;99.90;;;;;;4998506;28;20476;-85
2022/01/30 00:33:16;;;;;;;0.87;0.80;;;4.60;99.90;;;;;;4991809;28;20451;-86
2022/01/30 00:35:43;;;;;;;0.80;0.80;;;4.60;99.90;;;;;;4989651;28;21017;-85
2022/01/30 00:38:11;;;;;;;1.00;0.90;;;4.70;99.90;;;;;;5010455;28;20292;-85
2022/01/30 00:40:37;;;;;;;1.00;0.90;;;4.70;99.90;;;;;;5005156;28;20555;-85
2022/01/30 00:43:04;;;;;;;0.90;0.80;;;4.80;99.90;;;;;;5006061;28;20461;-85
2022/01/30 00:45:30;;;;;;;2.50;1.63;;;4.80;99.90;;;;;;5006390;28;20982;-86
2022/01/30 00:47:55;;;;;;;0.90;0.80;;;4.90;99.90;;;;;;5010332;28;20475;-86
2022/01/30 00:50:21;;;;;;;1.00;0.90;;;4.90;99.90;;;;;;5011231;28;20352;-86
2022/01/30 00:52:53;;;;;;;0.90;0.80;;;4.80;99.90;;;;;;5010133;28;20685;-86
2022/01/30 00:55:18;;;;;;;0.80;0.73;;;4.80;99.90;;;;;;5001002;28;20440;-84
2022/01/30 00:57:44;;;;;;;0.87;0.70;;;4.80;99.90;;;;;;5010085;28;20488;-85
2022/01/30 01:00:10;;;;;;;0.90;0.80;;;4.80;99.90;;;;;;5008125;28;20703;-84
2022/01/30 01:02:36;;;;;;;0.80;0.80;;;4.80;99.90;;;;;;5008383;28;20189;-84
2022/01/30 01:05:05;;;;;;;0.90;0.80;;;4.80;99.90;;;;;;5010117;28;21051;-85
2022/01/30 01:07:32;;;;;;;0.90;0.80;;;4.90;99.90;;;;;;5009558;28;20641;-84
2022/01/30 01:10:12;;;;;;;0.90;0.80;;;4.90;99.90;;;;;;5010962;28;20447;-85
2022/01/30 01:21:00;;;;;;;0.90;0.80;;;5.10;99.90;;;;;;5008976;28;20505;-86
2022/01/30 01:25:54;;;;;;;0.90;0.80;;;5.20;99.90;;;;;;5002476;28;20447;-86
2022/01/30 01:28:19;;;;;;;0.87;0.70;;;5.30;99.90;;;;;;5008220;28;20443;-86
2022/01/30 01:30:45;;;;;;;0.90;0.80;;;5.30;99.90;;;;;;5006197;28;20443;-85
2022/01/30 01:33:12;;;;;;;0.80;0.63;;;5.30;99.90;;;;;;5004342;28;20228;-85
2022/01/30 01:35:37;;;;;;;0.90;0.80;;;5.40;99.90;;;;;;4990639;28;20537;-86
2022/01/30 01:38:04;;;;;;;0.83;0.70;;;5.40;99.90;;;;;;4988700;28;20447;-86
2022/01/30 01:40:30;;;;;;;1.33;1.23;;;5.40;99.90;;;;;;5011735;28;20177;-86
2022/01/30 01:43:00;;;;;;;0.90;0.70;;;5.50;99.90;;;;;;5010367;28;21224;-86
2022/01/30 01:45:32;;;;;;;0.90;0.70;;;5.50;99.90;;;;;;5008802;28;20473;-85
2022/01/30 01:48:02;;;;;;;1.00;0.90;;;5.60;99.90;;;;;;4999091;28;21053;-86
2022/01/30 01:50:38;;;;;;;0.90;0.70;;;5.60;99.90;;;;;;5009406;28;20918;-86
2022/01/30 01:53:06;;;;;;;0.90;0.80;;;5.60;99.90;;;;;;5001747;28;20495;-87
2022/01/30 01:55:31;;;;;;;0.90;0.70;;;5.60;99.90;;;;;;4991943;28;20443;-87
2022/01/30 01:57:57;;;;;;;1.00;0.90;;;5.60;99.90;;;;;;5010649;28;20455;-87
2022/01/30 02:00:22;;;;;;;0.87;0.80;;;5.70;99.90;;;;;;5008267;28;20663;-86
2022/01/30 02:02:48;;;;;;;0.90;0.70;;;5.70;99.90;;;;;;5005226;28;20189;-85
2022/01/30 02:05:13;;;;;;;0.90;0.70;;;5.70;99.90;;;;;;5009222;28;20199;-86
2022/01/30 02:10:28;;;;;;;0.80;0.70;;;5.70;99.90;;;;;;5011944;28;20648;-86
2022/01/30 02:12:56;;;;;;;0.90;0.80;;;5.70;99.90;;;;;;4987234;28;20931;-86
2022/01/30 02:26:00;;;;;;;0.80;0.70;;;5.70;99.90;;;;;;5003281;28;20444;-86
2022/01/30 02:28:28;;;;;;;0.90;0.70;;;5.80;99.90;;;;;;5008610;28;20450;-86
2022/01/30 02:31:08;;;;;;;2.67;2.57;;;5.80;99.90;;;;;;5005235;28;20439;-86
2022/01/30 02:33:34;;;;;;;1.10;1.00;;;5.90;99.90;;;;;;5002013;28;20454;-85
2022/01/30 02:36:00;;;;;;;0.80;0.73;;;5.80;99.90;;;;;;5002076;28;21005;-85
2022/01/30 02:38:28;;;;;;;1.20;1.10;;;5.70;99.90;;;;;;5007108;28;20974;-85
2022/01/30 02:40:56;;;;;;;0.80;0.70;;;5.60;99.90;;;;;;5006428;28;20455;-86
2022/01/30 02:43:24;;;;;;;0.83;0.70;;;5.60;99.90;;;;;;5001602;28;20436;-85
2022/01/30 02:46:06;;;;;;;0.90;0.80;;;5.60;99.90;;;;;;5005703;28;21330;-84
2022/01/30 02:48:53;;;;;;;0.90;0.80;;;5.60;99.90;;;;;;5005882;28;20443;-85
2022/01/30 02:51:22;;;;;;;0.83;0.70;;;5.60;99.90;;;;;;5003296;28;20563;-85
2022/01/30 02:53:56;;;;;;;0.83;0.70;;;5.70;99.90;;;;;;5001552;28;20961;-84
2022/01/30 02:56:22;;;;;;;0.90;0.80;;;5.70;99.90;;;;;;4999558;28;20454;-86
2022/01/30 02:58:47;;;;;;;0.83;0.70;;;5.60;99.90;;;;;;5008631;28;20447;-85
2022/01/30 03:01:13;;;;;;;3.60;3.33;;;5.60;99.90;;;;;;5004764;28;20473;-87
2022/01/30 03:03:39;;;;;;;2.13;1.00;;;5.60;99.90;;;;;;4990415;28;20805;-89
2022/01/30 03:06:04;;;;;;;0.90;0.70;;;5.60;99.90;;;;;;5008941;28;20238;-87
2022/01/30 03:08:30;;;;;;;0.90;0.80;;;5.50;99.90;;;;;;5007858;28;20266;-85
2022/01/30 03:10:55;;;;;;;0.90;0.73;;;5.50;99.90;;;;;;4983195;28;20590;-85
2022/01/30 03:13:21;;;;;;;1.10;1.00;;;5.40;99.90;;;;;;5006832;28;20195;-85
2022/01/30 03:15:46;;;;;;;0.80;0.70;;;5.40;99.90;;;;;;5009418;28;20723;-84
2022/01/30 03:18:12;;;;;;;0.90;0.80;;;5.50;99.90;;;;;;5007108;28;20195;-86
2022/01/30 03:20:37;;;;;;;0.90;0.70;;;5.40;99.90;;;;;;5008004;28;20199;-86
2022/01/30 03:23:03;;;;;;;0.83;0.70;;;5.30;99.90;;;;;;5008190;28;20553;-87
2022/01/30 03:25:32;;;;;;;0.90;0.80;;;5.30;99.90;;;;;;5001958;28;20230;-86
2022/01/30 03:27:57;;;;;;;2.10;1.43;;;5.30;99.90;;;;;;4996441;28;20454;-85
2022/01/30 03:30:29;;;;;;;1.43;1.33;;;5.30;99.90;;;;;;4998170;28;20440;-86
2022/01/30 03:32:55;;;;;;;0.90;0.80;;;5.40;99.90;;;;;;5004714;28;20236;-86
2022/01/30 03:35:21;;;;;;;0.90;0.80;;;5.40;99.90;;;;;;5002447;28;20435;-86
2022/01/30 03:37:46;;;;;;;1.73;1.63;;;5.50;99.90;;;;;;5014897;28;20338;-86
2022/01/30 03:40:13;;;;;;;0.90;0.70;;;5.50;99.90;;;;;;5003536;28;20454;-86
2022/01/30 03:42:39;;;;;;;0.83;0.70;;;5.60;99.90;;;;;;5005372;28;20176;-86
2022/01/30 03:45:05;;;;;;;1.00;0.90;;;5.60;99.90;;;;;;4985994;28;20451;-86
2022/01/30 03:47:31;;;;;;;1.00;0.90;;;5.50;99.90;;;;;;4989514;28;20283;-84
2022/01/30 03:49:56;;;;;;;0.83;0.70;;;5.50;99.90;;;;;;5006272;28;20526;-85
2022/01/30 03:52:22;;;;;;;0.87;0.80;;;5.50;99.90;;;;;;5008689;28;20683;-85
2022/01/30 03:54:48;;;;;;;1.93;1.83;;;5.50;99.90;;;;;;5003772;28;20203;-85
2022/01/30 03:57:13;;;;;;;0.90;0.80;;;5.50;99.90;;;;;;5011210;28;20265;-86
2022/01/30 03:59:39;;;;;;;0.80;0.70;;;5.50;99.90;;;;;;5009755;28;20192;-86
2022/01/30 04:02:04;;;;;;;0.90;0.80;;;5.50;99.90;;;;;;4994041;28;20206;-87
2022/01/30 04:04:32;;;;;;;0.90;0.80;;;5.50;99.90;;;;;;5010792;28;20196;-85
2022/01/30 04:06:59;;;;;;;0.80;0.70;;;5.60;99.90;;;;;;5011039;28;20246;-86
2022/01/30 04:09:26;;;;;;;0.80;0.70;;;5.60;99.90;;;;;;4991145;28;20529;-86
2022/01/30 04:11:52;;;;;;;1.40;1.20;;;5.60;99.90;;;;;;5008713;28;21007;-86
2022/01/30 04:14:17;;;;;;;0.90;0.70;;;5.70;99.90;;;;;;5007522;28;20444;-86
2022/01/30 04:16:43;;;;;;;1.20;1.10;;;5.70;99.90;;;;;;5008287;28;20648;-84
2022/01/30 04:19:08;;;;;;;0.80;0.70;;;5.70;99.90;;;;;;5005599;28;20188;-85
2022/01/30 04:21:34;;;;;;;0.90;0.80;;;5.70;99.90;;;;;;5005801;28;20188;-86
2022/01/30 04:24:00;;;;;;;2.07;1.97;;;5.70;99.90;;;;;;5011301;28;20235;-86
2022/01/30 04:26:26;;;;;;;0.87;0.70;;;5.70;99.90;;;;;;5010607;28;20184;-86
2022/01/30 04:28:51;;;;;;;0.83;0.70;;;5.60;99.90;;;;;;4992832;28;20946;-86
2022/01/30 04:31:17;;;;;;;0.80;0.70;;;5.70;99.90;;;;;;4992433;28;20181;-85
2022/01/30 04:33:43;;;;;;;2.90;2.80;;;5.70;99.90;;;;;;5010299;28;20648;-86
2022/01/30 04:36:14;;;;;;;0.83;0.70;;;5.70;99.90;;;;;;5007524;28;20481;-85
2022/01/30 04:41:56;;;;;;;0.90;0.80;;;5.70;99.90;;;;;;4996815;28;20825;-85
2022/01/30 05:00:33;;;;;;;2.00;1.50;;;5.80;99.90;;;;;;5009333;28;20485;-86
2022/01/30 05:05:52;;;;;;;0.80;0.70;;;5.80;99.90;;;;;;5009805;28;20443;-86
2022/01/30 05:08:19;;;;;;;4.20;2.00;;;5.80;99.90;;;;;;4992394;28;20439;-86
2022/01/30 05:10:44;;;;;;;0.90;0.70;;;5.80;99.90;;;;;;5004465;28;20455;-86
2022/01/30 05:13:15;;;;;;;1.27;1.17;;;5.80;99.90;;;;;;4999924;28;20517;-85
2022/01/30 05:15:43;;;;;;;0.80;0.70;;;5.80;99.90;;;;;;5011072;28;20188;-85
2022/01/30 05:18:09;;;;;;;0.87;0.80;;;5.70;99.90;;;;;;5005742;28;20447;-85
2022/01/30 05:20:35;;;;;;;0.80;0.70;;;5.70;99.90;;;;;;4989443;28;20463;-86
2022/01/30 05:23:01;;;;;;;0.87;0.70;;;5.70;99.90;;;;;;4989349;28;20439;-85
2022/01/30 05:25:27;;;;;;;0.90;0.80;;;5.70;99.90;;;;;;5006378;28;20477;-85
2022/01/30 05:27:53;;;;;;;0.80;0.70;;;5.60;99.90;;;;;;5010438;28;20542;-86
2022/01/30 05:30:19;;;;;;;0.83;0.70;;;5.70;99.90;;;;;;5003313;28;21037;-85
2022/01/30 05:32:45;;;;;;;0.80;0.70;;;5.70;99.90;;;;;;5007648;28;20221;-85
2022/01/30 05:35:11;;;;;;;0.87;0.70;;;5.60;99.90;;;;;;4992204;28;20270;-85
2022/01/30 05:37:39;;;;;;;0.80;0.70;;;5.60;99.90;;;;;;5001306;28;20200;-86
2022/01/30 05:40:06;;;;;;;0.80;0.70;;;5.60;99.90;;;;;;5009595;28;20466;-86
2022/01/30 05:42:32;;;;;;;0.80;0.70;;;5.50;99.90;;;;;;5007772;28;20451;-86
2022/01/30 05:45:09;;;;;;;1.10;1.00;;;5.40;99.90;;;;;;4986400;28;21185;-86
2022/01/30 05:47:44;;;;;;;0.80;0.77;;;5.50;99.90;;;;;;5005222;28;20502;-85
2022/01/30 05:50:10;;;;;;;0.87;0.70;;;5.60;99.90;;;;;;5007971;28;21072;-85
2022/01/30 05:52:36;;;;;;;0.80;0.70;;;5.60;99.90;;;;;;4989956;28;20490;-85
2022/01/30 05:55:02;;;;;;;0.80;0.70;;;5.50;99.90;;;;;;5008658;28;20802;-85
2022/01/30 05:57:27;;;;;;;0.87;0.73;;;5.60;99.90;;;;;;5005178;28;20899;-87
2022/01/30 05:59:53;;;;;;;0.80;0.70;;;5.60;99.90;;;;;;4990816;28;20447;-84
2022/01/30 06:02:19;;;;;;;0.80;0.70;;;5.60;99.90;;;;;;4983522;28;20193;-85
2022/01/30 06:04:44;;;;;;;0.80;0.63;;;5.50;99.90;;;;;;5008405;28;20216;-86
2022/01/30 06:07:11;;;;;;;0.80;0.77;;;5.50;99.90;;;;;;5007082;28;20200;-87
2022/01/30 06:09:37;;;;;;;0.87;0.77;;;5.40;99.90;;;;;;5006981;28;20661;-86
2022/01/30 06:12:03;;;;;;;0.90;0.80;;;5.40;99.90;;;;;;4988063;28;20489;-86
2022/01/30 06:14:29;;;;;;;0.80;0.80;;;5.40;99.90;;;;;;5005833;28;20185;-86
2022/01/30 06:16:55;;;;;;;0.90;0.80;;;5.40;99.90;;;;;;5005476;28;20869;-86
2022/01/30 06:19:22;;;;;;;0.80;0.80;;;5.40;99.90;;;;;;5000417;28;20181;-85
2022/01/30 06:21:48;;;;;;;0.83;0.80;;;5.40;99.90;;;;;;5004639;28;20440;-86
2022/01/30 06:24:14;;;;;;;0.80;0.70;;;5.40;99.90;;;;;;5000080;28;20442;-86
2022/01/30 06:26:39;;;;;;;0.80;0.70;;;5.50;99.90;;;;;;5005852;28;20526;-86
2022/01/30 06:29:05;;;;;;;0.90;0.90;;;5.40;99.90;;;;;;5003036;28;20741;-86
2022/01/30 06:31:36;;;;;;;0.80;0.80;;;5.50;99.90;;;;;;5003648;28;20332;-86
2022/01/30 06:34:02;;;;;;;0.80;0.80;;;5.50;99.90;;;;;;5003277;28;20200;-86
2022/01/30 06:36:28;;;;;;;0.80;0.80;;;5.50;99.90;;;;;;5003679;28;20489;-85
2022/01/30 06:38:53;;;;;;;0.80;0.70;;;5.50;99.90;;;;;;5007313;28;20193;-87
2022/01/30 06:41:19;;;;;;;0.80;0.77;;;5.50;99.90;;;;;;4992294;28;20192;-85
2022/01/30 06:43:45;;;;;;;0.80;0.60;;;5.60;99.90;;;;;;4988411;28;20209;-85
2022/01/30 06:46:11;;;;;;;0.80;0.80;;;5.50;99.90;;;;;;5002639;28;20939;-84
2022/01/30 06:48:38;;;;;;;0.80;0.80;;;5.50;99.90;;;;;;5007222;28;20192;-86
2022/01/30 06:51:07;;;;;;;0.80;0.80;;;5.50;99.90;;;;;;5004577;28;20435;-86
2022/01/30 06:53:33;;;;;;;0.80;0.70;;;5.50;99.90;;;;;;5007176;28;20462;-85
2022/01/30 06:55:58;;;;;;;1.10;1.00;;;5.60;99.90;;;;;;5004381;28;20433;-85
2022/01/30 06:58:24;;;;;;;0.80;0.77;;;5.60;99.90;;;;;;5007302;28;20220;-86
2022/01/30 07:00:49;;;;;;;0.80;0.70;;;5.60;99.90;;;;;;5008211;28;20231;-86
2022/01/30 07:03:15;;;;;;;0.80;0.80;;;5.60;99.90;;;;;;5010479;28;20258;-86
2022/01/30 07:05:40;;;;;;;0.80;0.70;;;5.50;99.90;;;;;;5004348;28;20196;-86
2022/01/30 07:08:06;;;;;;;0.80;0.70;;;5.60;99.90;;;;;;5010558;28;20220;-86
2022/01/30 07:10:32;;;;;;;0.80;0.70;;;5.60;99.90;;;;;;5008844;28;20275;-85
2022/01/30 07:12:57;;;;;;;0.80;0.80;;;5.60;99.90;;;;;;5006435;28;20850;-86
2022/01/30 07:15:23;;;;;;;0.80;0.80;;;5.50;99.90;;;;;;4990639;28;20208;-85
2022/01/30 07:17:48;;;;;;;0.80;0.80;;;5.50;99.90;;;;;;5004783;28;20274;-87
2022/01/30 07:20:14;;;;;;;0.80;0.70;;;5.50;99.90;;;;;;4999087;28;20212;-85
2022/01/30 07:22:40;;;;;;;0.80;0.70;;;5.50;99.90;;;;;;5005047;28;20185;-86
2022/01/30 07:25:07;;;;;;;1.77;1.67;;;5.50;99.90;;;;;;5001073;28;20275;-86
2022/01/30 07:27:34;;;;;;;0.80;0.70;;;5.60;99.90;;;;;;5007687;28;20176;-85
2022/01/30 07:30:09;;;;;;;0.80;0.70;;;5.60;99.90;;;;;;4985003;28;20460;-85
2022/01/30 07:32:34;;;;;;;3.47;1.93;;;5.60;99.90;;;;;;5000256;28;20482;-86
2022/01/30 07:35:00;;;;;;;0.90;0.77;;;5.60;99.90;;;;;;5007688;28;20496;-86
2022/01/30 07:37:26;;;;;;;0.97;0.87;;;5.50;99.90;;;;;;5005723;28;20226;-86
2022/01/30 07:39:53;;;;;;;0.80;0.80;;;5.40;99.90;;;;;;5002527;28;20187;-86
2022/01/30 07:42:19;;;;;;;0.80;0.80;;;5.50;99.90;;;;;;5005663;28;21024;-87
2022/01/30 07:44:45;;;;;;;0.80;0.70;;;5.50;99.90;;;;;;5007092;28;20965;-87
2022/01/30 07:47:11;;;;;;;0.80;0.70;;;5.50;99.90;;;;;;4988281;28;21171;-85
2022/01/30 07:49:36;;;;;;;0.80;0.70;;;5.60;99.90;;;;;;5001818;28;20525;-86
2022/01/30 07:52:02;;;;;;;0.80;0.70;;;5.60;99.90;;;;;;4986391;28;20235;-86
2022/01/30 07:54:31;;;;;;;0.80;0.80;;;5.50;99.90;;;;;;4990829;28;20188;-85
2022/01/30 07:56:57;;;;;;;0.80;0.70;;;5.50;99.90;;;;;;4996934;28;20456;-85
2022/01/30 07:59:23;;;;;;;0.80;0.70;;;5.50;99.90;;;;;;5000205;28;20810;-86
2022/01/30 08:01:48;;;;;;;0.83;0.70;;;5.50;99.90;;;;;;4988655;28;20612;-86
2022/01/30 08:04:14;;;;;;;0.80;0.70;;;5.50;99.90;;;;;;5001868;28;20188;-85
2022/01/30 08:06:40;;;;;;;0.80;0.70;;;5.50;99.90;;;;;;5000515;28;20588;-86
2022/01/30 08:09:05;;;;;;;0.83;0.80;;;5.50;99.90;;;;;;4999953;28;20219;-86
2022/01/30 08:11:31;;;;;;;0.90;0.80;;;5.40;99.90;;;;;;5001215;28;20226;-86
2022/01/30 08:13:56;;;;;;;0.90;0.80;;;5.40;99.90;;;;;;4984745;28;20922;-86
2022/01/30 08:16:24;;;;;;;6.40;3.10;;;5.50;99.90;;;;;;5006336;28;20184;-86
2022/01/30 08:18:49;;;;;;;0.90;0.80;;;5.50;99.90;;;;;;4987082;28;20195;-85
2022/01/30 08:21:15;;;;;;;0.83;0.80;;;5.50;99.90;;;;;;5005084;28;20428;-86
2022/01/30 08:23:40;;;;;;;0.90;0.80;;;5.50;99.90;;;;;;4989503;28;20181;-86
2022/01/30 08:26:06;;;;;;;0.80;0.70;;;5.60;99.90;;;;;;5001044;28;20180;-89
2022/01/30 08:28:31;;;;;;;0.80;0.80;;;5.60;99.90;;;;;;5000772;28;20223;-90
2022/01/30 08:30:57;;;;;;;3.57;1.40;;;5.60;99.90;;;;;;4988241;28;20196;-89
2022/01/30 08:33:23;;;;;;;0.80;0.60;;;5.70;99.90;;;;;;5004300;28;20232;-84
2022/01/30 08:35:50;;;;;;;0.80;0.70;;;5.60;99.90;;;;;;5002331;28;20240;-83
2022/01/30 08:38:18;;;;;;;0.83;0.70;;;5.70;99.90;;;;;;5001498;28;20610;-82
2022/01/30 08:40:44;;;;;;;0.90;0.80;;;5.80;99.90;;;;;;5008153;28;20513;-83
2022/01/30 08:43:10;;;;;;;0.80;0.70;;;5.90;99.90;;;;;;4981133;28;20446;-83
2022/01/30 08:45:36;;;;;;;0.87;0.70;;;5.90;99.90;;;;;;5006493;28;20431;-83
2022/01/30 08:48:01;;;;;;;0.80;0.70;;;5.90;99.90;;;;;;5005667;28;22511;-89
2022/01/30 08:50:27;;;;;;;1.37;1.27;;;5.90;99.90;;;;;;5003319;28;20185;-89
2022/01/30 08:52:53;;;;;;;1.10;1.00;;;6.00;99.90;;;;;;5006705;28;20613;-84
2022/01/30 08:55:19;;;;;;;1.03;0.93;;;6.10;99.90;;;;;;4986845;28;20652;-83
2022/01/30 08:57:45;;;;;;;0.87;0.70;;;6.20;99.90;;;;;;5005075;28;20462;-81
2022/01/30 09:00:13;;;;;;;1.37;1.27;;;6.20;99.90;;;;;;5005332;28;20188;-82
2022/01/30 09:02:39;;;;;;;0.93;0.83;;;6.20;99.90;;;;;;4992351;28;20440;-83
2022/01/30 09:05:06;;;;;;;1.23;1.13;;;6.20;99.90;;;;;;4990321;28;20466;-84
2022/01/30 09:07:32;;;;;;;1.13;1.03;;;6.30;99.90;;;;;;4988611;28;20534;-83
2022/01/30 09:09:58;;;;;;;0.90;0.70;;;6.40;99.90;;;;;;5008671;28;20554;-83
2022/01/30 09:12:24;;;;;;;0.90;0.80;;;6.50;99.90;;;;;;5007419;28;20687;-83
2022/01/30 09:14:50;;;;;;;0.90;0.70;;;6.50;99.90;;;;;;5008348;28;20226;-83
2022/01/30 09:17:16;;;;;;;0.87;0.70;;;6.70;99.90;;;;;;5002731;28;20451;-82
2022/01/30 09:19:44;;;;;;;0.90;0.80;;;6.70;99.90;;;;;;5004703;28;20177;-83
2022/01/30 09:22:11;;;;;;;0.90;0.80;;;6.50;99.90;;;;;;5008461;28;20822;-83
2022/01/30 09:24:38;;;;;;;0.90;0.70;;;6.50;99.90;;;;;;5009691;28;20582;-83
2022/01/30 09:27:05;;;;;;;1.63;1.53;;;6.50;99.90;;;;;;4986658;28;20454;-82
2022/01/30 09:29:31;;;;;;;0.90;0.70;;;6.70;99.90;;;;;;4988129;28;20534;-82
2022/01/30 09:31:58;;;;;;;0.80;0.70;;;6.80;99.90;;;;;;5004945;28;20483;-82
2022/01/30 09:34:23;;;;;;;0.90;0.70;;;6.60;99.90;;;;;;5005147;28;20961;-82
2022/01/30 09:36:49;;;;;;;0.90;0.70;;;6.80;99.90;;;;;;4987601;28;20510;-81
2022/01/30 09:39:15;;;;;;;0.80;0.70;;;6.80;99.90;;;;;;5001465;28;20212;-83
2022/01/30 09:41:43;;;;;;;0.80;0.70;;;6.70;99.90;;;;;;5009164;28;20442;-82
2022/01/30 09:44:10;;;;;;;0.80;0.70;;;7.00;99.90;;;;;;5005085;28;20565;-82
2022/01/30 09:46:39;;;;;;;0.90;0.70;;;7.00;99.90;;;;;;5004597;28;20443;-84
2022/01/30 09:49:06;;;;;;;0.80;0.70;;;7.00;99.90;;;;;;5005234;28;20540;-84
2022/01/30 09:51:34;;;;;;;0.90;0.80;;;6.90;99.90;;;;;;5004507;28;20470;-82
2022/01/30 09:54:01;;;;;;;0.80;0.70;;;7.00;99.90;;;;;;5006985;28;21664;-82
2022/01/30 09:56:26;;;;;;;0.83;0.70;;;7.10;99.90;;;;;;5005105;28;20444;-82
2022/01/30 09:58:52;;;;;;;0.80;0.70;;;7.30;99.90;;;;;;5004793;28;20474;-82
2022/01/30 10:01:18;;;;;;;1.73;1.63;;;7.40;99.90;;;;;;5003015;28;20188;-82
2022/01/30 10:03:46;;;;;;;0.80;0.70;;;7.50;99.90;;;;;;4990873;28;20493;-82
2022/01/30 10:06:17;;;;;;;3.63;3.23;;;7.60;99.90;;;;;;5003921;28;20196;-83
2022/01/30 10:08:45;;;;;;;0.80;0.70;;;7.50;99.90;;;;;;4991525;28;20455;-83
2022/01/30 10:11:27;;;;;;;0.80;0.70;;;7.30;99.90;;;;;;5004681;28;20517;-83
2022/01/30 10:14:10;;;;;;;0.80;0.70;;;7.50;99.90;;;;;;5003645;28;20458;-83
2022/01/30 10:16:45;;;;;;;15.20;3.67;;;7.80;99.90;;;;;;5002027;28;20447;-83
2022/01/30 10:19:23;;;;;;;0.80;0.60;;;7.60;99.90;;;;;;4989639;28;20458;-82
2022/01/30 10:22:03;;;;;;;0.90;0.70;;;7.80;99.90;;;;;;4988186;28;20467;-85
2022/01/30 10:24:28;;;;;;;0.80;0.60;;;7.80;99.90;;;;;;5009675;28;20490;-86
2022/01/30 10:26:59;;;;;;;0.80;0.60;;;8.10;99.90;;;;;;5008299;28;20486;-85
2022/01/30 10:29:27;;;;;;;0.80;0.60;;;7.80;99.90;;;;;;5002998;28;20640;-84
2022/01/30 10:32:10;;;;;;;0.80;0.60;;;8.10;99.90;;;;;;5001611;28;20492;-83
2022/01/30 10:34:37;;;;;;;0.80;0.77;;;8.00;99.90;;;;;;5005814;28;20966;-84
2022/01/30 10:37:15;;;;;;;1.10;1.00;;;8.20;99.90;;;;;;5004225;28;20489;-84
2022/01/30 10:39:55;;;;;;;0.83;0.77;;;8.10;99.90;;;;;;5004094;28;20934;-83
2022/01/30 10:42:32;;;;;;;1.20;1.10;;;8.20;99.90;;;;;;4988271;28;20450;-84
2022/01/30 10:44:57;;;;;;;0.80;0.60;;;8.20;99.90;;;;;;5006327;28;20482;-84
2022/01/30 10:47:23;;;;;;;0.80;0.70;;;8.30;99.90;;;;;;5002249;28;20907;-81
2022/01/30 10:49:49;;;;;;;0.80;0.60;;;8.60;99.90;;;;;;4982072;28;20188;-81
2022/01/30 10:52:15;;;;;;;1.93;1.23;;;8.60;99.90;;;;;;5007534;28;20687;-81
2022/01/30 10:54:41;;;;;;;0.87;0.70;;;8.80;99.90;;;;;;5001526;28;20450;-81
2022/01/30 10:57:11;;;;;;;2.80;2.60;;;9.20;99.90;;;;;;5003760;28;20196;-82
2022/01/30 10:59:43;;;;;;;1.80;1.63;;;9.30;99.90;;;;;;4988838;28;20880;-84
2022/01/30 11:02:17;;;;;;;0.90;0.70;;;8.50;99.90;;;;;;4987193;28;20541;-83
2022/01/30 11:04:44;;;;;;;0.90;0.60;;;9.00;99.90;;;;;;5003469;28;20529;-83
2022/01/30 11:07:10;;;;;;;0.90;0.60;;;9.10;99.90;;;;;;5001752;28;20474;-84
2022/01/30 11:09:41;;;;;;;0.80;0.60;;;8.50;99.90;;;;;;5002352;28;21025;-85
2022/01/30 11:12:11;;;;;;;1.27;1.17;;;8.90;99.90;;;;;;4999945;28;20684;-84
2022/01/30 11:17:16;;;;;;;0.80;0.60;;;9.00;99.90;;;;;;5006306;28;20442;-84
2022/01/30 11:19:49;;;;;;;1.00;0.90;;;9.20;99.90;;;;;;5005965;28;20537;-83
2022/01/30 11:22:16;;;;;;;0.90;0.70;;;9.50;99.90;;;;;;4990201;28;20443;-80
2022/01/30 11:24:59;;;;;;;0.90;0.60;;;9.70;99.90;;;;;;5007596;28;20958;-81
2022/01/30 11:27:24;;;;;;;0.90;0.60;;;9.50;99.90;;;;;;5001827;28;20478;-81
2022/01/30 11:29:51;;;;;;;0.90;0.70;;;9.90;99.90;;;;;;5004729;28;20439;-82
2022/01/30 11:32:20;;;;;;;0.90;0.60;;;10.00;99.90;;;;;;5007498;28;20310;-83
2022/01/30 11:34:46;;;;;;;0.80;0.60;;;9.40;99.90;;;;;;4996138;28;20967;-81
2022/01/30 11:37:14;;;;;;;0.97;0.70;;;9.70;99.90;;;;;;5005438;28;20537;-80
2022/01/30 11:39:48;;;;;;;0.90;0.60;;;9.70;99.90;;;;;;5006342;28;20974;-81
2022/01/30 11:42:23;;;;;;;0.90;0.60;;;9.60;99.90;;;;;;5007330;28;20860;-83
2022/01/30 11:45:09;;;;;;;0.90;0.60;;;9.40;99.90;;;;;;5004142;28;20530;-80
2022/01/30 11:48:00;;;;;;;0.90;0.70;;;9.60;99.90;;;;;;5003025;28;20992;-82
2022/01/30 11:50:29;;;;;;;0.90;0.60;;;9.30;99.90;;;;;;5001673;28;20439;-83
2022/01/30 11:52:57;;;;;;;0.90;0.60;;;9.80;99.90;;;;;;5005536;28;20483;-82
2022/01/30 11:55:43;;;;;;;0.90;0.60;;;9.80;99.90;;;;;;5004062;28;20429;-83
2022/01/30 11:58:30;;;;;;;1.77;1.67;;;9.80;99.90;;;;;;4998736;28;20442;-82
2022/01/30 12:00:58;;;;;;;0.90;0.57;;;10.10;99.90;;;;;;5001901;28;20439;-82
2022/01/30 12:03:29;;;;;;;0.90;0.60;;;9.80;99.90;;;;;;5006325;28;20939;-81
2022/01/30 12:05:56;;;;;;;1.00;0.80;;;9.40;99.90;;;;;;5002647;28;20451;-82
2022/01/30 12:08:44;;;;;;;0.90;0.57;;;10.10;99.90;;;;;;5004469;28;20796;-82
2022/01/30 12:11:38;;;;;;;0.90;0.60;;;10.10;99.90;;;;;;5001459;28;20538;-82
2022/01/30 12:14:11;;;;;;;0.90;0.60;;;10.10;99.90;;;;;;5006714;28;20538;-84
2022/01/30 12:16:44;;;;;;;0.90;0.60;;;10.10;99.90;;;;;;5004205;28;20431;-81
2022/01/30 12:19:11;;;;;;;0.90;0.60;;;10.80;99.90;;;;;;5005230;28;20505;-82
2022/01/30 12:21:38;;;;;;;0.90;0.63;;;10.60;99.90;;;;;;5004062;28;20449;-83
2022/01/30 12:24:26;;;;;;;0.80;0.50;;;10.40;99.90;;;;;;5010659;28;20453;-85
2022/01/30 12:27:02;;;;;;;1.00;0.80;;;9.90;99.90;;;;;;5010099;28;20451;-84
2022/01/30 12:29:43;;;;;;;0.90;0.50;;;10.30;99.90;;;;;;5000931;28;20537;-81
2022/01/30 12:32:21;;;;;;;1.33;1.17;;;10.50;99.90;;;;;;5008351;28;20478;-82
2022/01/30 12:34:55;;;;;;;0.80;0.60;;;10.40;99.90;;;;;;5008942;28;20465;-81
2022/01/30 12:37:22;;;;;;;1.00;0.70;;;10.60;99.90;;;;;;4999772;28;20551;-82
2022/01/30 12:39:48;;;;;;;1.10;1.00;;;11.20;99.90;;;;;;5007961;28;20443;-83
2022/01/30 12:42:17;;;;;;;0.90;0.53;;;10.90;99.90;;;;;;4990568;28;20850;-82
2022/01/30 12:44:44;;;;;;;0.80;0.50;;;11.00;99.90;;;;;;4989509;28;20188;-83
2022/01/30 12:47:10;;;;;;;0.83;0.50;;;10.80;99.90;;;;;;5005441;28;20926;-82
2022/01/30 12:49:47;;;;;;;0.80;0.53;;;9.80;99.90;;;;;;4991770;28;20822;-83
2022/01/30 12:52:27;;;;;;;0.90;0.70;;;9.20;99.90;;;;;;4992312;28;20475;-83
2022/01/30 12:54:55;;;;;;;0.87;0.60;;;8.90;99.90;;;;;;4987010;28;20454;-84
2022/01/30 12:57:21;;;;;;;0.90;0.60;;;7.90;99.90;;;;;;5007398;28;20451;-84
2022/01/30 12:59:56;;;;;;;0.90;0.67;;;7.80;99.90;;;;;;4983565;28;20509;-84
2022/01/30 13:02:25;;;;;;;1.47;1.37;;;8.30;99.90;;;;;;5007431;28;20942;-84
2022/01/30 13:05:04;;;;;;;0.80;0.60;;;8.10;99.90;;;;;;5003685;28;20504;-84
2022/01/30 13:07:30;;;;;;;6.60;1.10;;;8.10;99.90;;;;;;4983781;28;20450;-84
2022/01/30 13:10:10;;;;;;;0.90;0.70;;;8.00;99.90;;;;;;5003741;28;20451;-84
2022/01/30 13:12:36;;;;;;;0.90;0.70;;;7.70;99.90;;;;;;4991406;28;20699;-84
2022/01/30 13:15:10;;;;;;;0.80;0.60;;;7.90;99.90;;;;;;5004294;28;20454;-82
2022/01/30 13:17:36;;;;;;;0.80;0.60;;;8.40;99.90;;;;;;4989689;28;20660;-82
2022/01/30 13:20:03;;;;;;;0.90;0.70;;;8.60;99.90;;;;;;5001293;28;20495;-83
2022/01/30 13:22:34;;;;;;;0.90;0.60;;;9.60;99.90;;;;;;5004800;28;20196;-83
2022/01/30 13:25:03;;;;;;;0.90;0.60;;;9.80;99.90;;;;;;5000129;28;20455;-80
2022/01/30 13:27:28;;;;;;;0.87;0.60;;;9.60;99.90;;;;;;5005072;28;20470;-83
2022/01/30 13:29:54;;;;;;;0.90;0.60;;;8.60;99.90;;;;;;5003653;28;20443;-82
2022/01/30 13:32:23;;;;;;;0.90;0.60;;;8.30;99.90;;;;;;5010051;28;20259;-83
2022/01/30 13:34:49;;;;;;;0.90;0.70;;;8.20;99.90;;;;;;5004167;28;20474;-84
2022/01/30 13:37:17;;;;;;;0.93;0.80;;;8.20;99.90;;;;;;5006853;28;20489;-84
2022/01/30 13:42:39;;;;;;;0.90;0.60;;;9.40;99.90;;;;;;5005529;28;20469;-83
2022/01/30 13:48:12;;;;;;;0.90;0.80;;;8.20;99.90;;;;;;5007084;28;20447;-82
2022/01/30 13:50:52;;;;;;;0.83;0.60;;;8.00;99.90;;;;;;4997784;28;20449;-84
2022/01/30 13:53:20;;;;;;;0.80;0.60;;;7.80;99.90;;;;;;5005412;28;20478;-83
2022/01/30 13:56:22;;;;;;;0.90;0.70;;;7.40;99.90;;;;;;4999724;28;20432;-82
2022/01/30 13:58:50;;;;;;;0.83;0.70;;;7.20;99.90;;;;;;4984847;28;20552;-83